Time;durP1;ratioP1;P1;durP2;ratioP2;P2;SDS_P1;SDS_P2;PMS_P1;PMS_P2;Temp;Humidity;BMP_temperature;BMP_pressure;BME280_temperature;BME280_humidity;BME280_pressure;Samples;Min_cycle;Max_cycle;Signal;HPM_P1;HPM_P2
2023/07/04 00:00:18;;;;;;;7.32;2.40;;;;;;;;;;5076893;28;20048;-56
2023/07/04 00:02:45;;;;;;;11.27;2.92;;;;;;;;;;5080291;28;20063;-58
2023/07/04 00:05:11;;;;;;;10.50;2.25;;;;;;;;;;5083337;28;20059;-58
2023/07/04 00:07:41;;;;;;;11.40;3.00;;;;;;;;;;5081911;28;20060;-58
2023/07/04 00:10:08;;;;;;;11.63;3.10;;;;;;;;;;5082572;28;20151;-58
2023/07/04 00:12:35;;;;;;;9.25;2.50;;;;;;;;;;5081734;28;20048;-58
2023/07/04 00:15:02;;;;;;;8.15;2.38;;;;;;;;;;5081793;28;20060;-58
2023/07/04 00:17:29;;;;;;;11.15;2.45;;;;;;;;;;5081403;28;20052;-58
2023/07/04 00:19:55;;;;;;;9.05;2.88;;;;;;;;;;5081678;28;20052;-58
2023/07/04 00:22:23;;;;;;;6.38;2.70;;;;;;;;;;5083074;28;20566;-58
2023/07/04 00:24:50;;;;;;;12.52;3.15;;;;;;;;;;5081623;28;20537;-58
2023/07/04 00:27:16;;;;;;;14.75;2.83;;;;;;;;;;5081999;28;20053;-58
2023/07/04 00:29:43;;;;;;;11.45;3.65;;;;;;;;;;5075797;28;20057;-57
2023/07/04 00:32:09;;;;;;;11.10;2.90;;;;;;;;;;5081520;28;20057;-57
2023/07/04 00:34:36;;;;;;;12.57;3.15;;;;;;;;;;5081985;28;20591;-58
2023/07/04 00:37:03;;;;;;;10.57;2.95;;;;;;;;;;5082562;28;20056;-58
2023/07/04 00:39:29;;;;;;;8.20;2.55;;;;;;;;;;5080977;28;20049;-58
2023/07/04 00:41:56;;;;;;;6.97;2.40;;;;;;;;;;5082356;28;20056;-58
2023/07/04 00:44:24;;;;;;;11.38;2.90;;;;;;;;;;5081229;28;20561;-58
2023/07/04 00:46:52;;;;;;;5.82;2.58;;;;;;;;;;5080892;28;20067;-58
2023/07/04 00:49:29;;;;;;;9.55;3.03;;;;;;;;;;5081895;28;20060;-59
2023/07/04 00:51:58;;;;;;;6.85;2.10;;;;;;;;;;5081695;28;20080;-57
2023/07/04 00:54:26;;;;;;;8.32;2.95;;;;;;;;;;5082198;28;20056;-58
2023/07/04 00:56:55;;;;;;;7.35;2.40;;;;;;;;;;5081615;28;20556;-58
2023/07/04 00:59:23;;;;;;;7.70;2.33;;;;;;;;;;5062491;28;20513;-58
2023/07/04 01:01:49;;;;;;;7.10;2.63;;;;;;;;;;5084176;28;20095;-58
2023/07/04 01:04:17;;;;;;;9.55;2.75;;;;;;;;;;5081682;28;20106;-58
2023/07/04 01:06:52;;;;;;;9.52;2.92;;;;;;;;;;5085667;28;20060;-57
2023/07/04 01:09:20;;;;;;;4.30;1.98;;;;;;;;;;5086567;28;20122;-58
2023/07/04 01:11:49;;;;;;;8.95;2.55;;;;;;;;;;5085308;28;20470;-58
2023/07/04 01:14:17;;;;;;;4.43;1.85;;;;;;;;;;5085993;28;20048;-57
2023/07/04 01:16:43;;;;;;;3.78;1.55;;;;;;;;;;5085537;28;20804;-57
2023/07/04 01:19:12;;;;;;;5.40;1.60;;;;;;;;;;5085576;28;20051;-58
2023/07/04 01:21:39;;;;;;;5.22;1.70;;;;;;;;;;5085211;28;20086;-58
2023/07/04 01:24:19;;;;;;;2.53;1.48;;;;;;;;;;5085452;28;20135;-57
2023/07/04 01:26:46;;;;;;;6.70;1.67;;;;;;;;;;5085741;28;20114;-56
2023/07/04 01:29:14;;;;;;;3.97;1.92;;;;;;;;;;5085053;28;20053;-59
2023/07/04 01:31:41;;;;;;;7.25;1.85;;;;;;;;;;5084086;28;20045;-58
2023/07/04 01:34:08;;;;;;;4.47;1.65;;;;;;;;;;5085698;28;20587;-58
2023/07/04 01:36:37;;;;;;;7.22;1.80;;;;;;;;;;5085267;28;20176;-57
2023/07/04 01:39:05;;;;;;;3.10;1.42;;;;;;;;;;5084938;28;20137;-58
2023/07/04 01:41:32;;;;;;;3.47;1.38;;;;;;;;;;5084171;28;20053;-59
2023/07/04 01:44:04;;;;;;;3.75;2.22;;;;;;;;;;5084583;28;20503;-59
2023/07/04 01:46:31;;;;;;;2.67;1.42;;;;;;;;;;5070234;28;20130;-59
2023/07/04 01:48:58;;;;;;;4.25;1.55;;;;;;;;;;5085224;28;20083;-59
2023/07/04 01:51:32;;;;;;;2.53;1.20;;;;;;;;;;5084849;28;20163;-59
2023/07/04 01:53:59;;;;;;;2.80;1.47;;;;;;;;;;5085583;28;20503;-59
2023/07/04 01:56:26;;;;;;;7.22;2.22;;;;;;;;;;5083519;28;20171;-59
2023/07/04 01:58:52;;;;;;;2.47;1.55;;;;;;;;;;5084492;28;20436;-59
2023/07/04 02:01:19;;;;;;;4.07;1.60;;;;;;;;;;5086376;28;20048;-58
2023/07/04 02:03:46;;;;;;;5.60;1.48;;;;;;;;;;5092029;28;20064;-59
2023/07/04 02:06:13;;;;;;;4.70;1.67;;;;;;;;;;5089247;28;20056;-58
2023/07/04 02:08:40;;;;;;;5.95;1.63;;;;;;;;;;5084502;28;20052;-59
2023/07/04 02:11:06;;;;;;;3.28;1.40;;;;;;;;;;5084899;28;20668;-59
2023/07/04 02:13:33;;;;;;;4.00;1.48;;;;;;;;;;5082487;28;20540;-58
2023/07/04 02:15:59;;;;;;;3.03;1.55;;;;;;;;;;5082573;28;20574;-59
2023/07/04 02:18:26;;;;;;;2.47;1.52;;;;;;;;;;5084451;28;20538;-59
2023/07/04 02:20:53;;;;;;;4.18;1.13;;;;;;;;;;5084817;28;20495;-60
2023/07/04 02:23:19;;;;;;;7.53;1.70;;;;;;;;;;5084741;28;20063;-59
2023/07/04 02:25:46;;;;;;;4.57;1.33;;;;;;;;;;5083812;28;20145;-59
2023/07/04 02:28:12;;;;;;;6.82;1.92;;;;;;;;;;5084237;28;20110;-56
2023/07/04 02:30:39;;;;;;;4.97;1.40;;;;;;;;;;5083419;28;20580;-59
2023/07/04 02:33:05;;;;;;;5.75;2.28;;;;;;;;;;5085073;28;20045;-59
2023/07/04 02:35:32;;;;;;;4.55;1.65;;;;;;;;;;5084500;28;20049;-58
2023/07/04 02:37:58;;;;;;;4.72;1.70;;;;;;;;;;5084098;28;20600;-57
2023/07/04 02:40:25;;;;;;;5.93;1.63;;;;;;;;;;5084415;28;20489;-58
2023/07/04 02:42:51;;;;;;;6.22;1.70;;;;;;;;;;5083666;28;20059;-58
2023/07/04 02:45:18;;;;;;;4.15;1.40;;;;;;;;;;5083854;28;20048;-58
2023/07/04 02:47:47;;;;;;;9.13;2.00;;;;;;;;;;5083068;28;20122;-59
2023/07/04 02:50:13;;;;;;;7.68;1.60;;;;;;;;;;5084245;28;20057;-56
2023/07/04 02:52:40;;;;;;;6.60;1.63;;;;;;;;;;5083002;28;20087;-58
2023/07/04 02:55:06;;;;;;;3.25;1.40;;;;;;;;;;5070559;28;20528;-58
2023/07/04 02:57:33;;;;;;;8.35;1.50;;;;;;;;;;5063504;28;20053;-59
2023/07/04 02:59:59;;;;;;;5.15;2.08;;;;;;;;;;5063978;28;20103;-59
2023/07/04 03:02:26;;;;;;;4.85;1.48;;;;;;;;;;5097635;28;20053;-56
2023/07/04 03:04:53;;;;;;;5.07;2.10;;;;;;;;;;5083938;28;20044;-57
2023/07/04 03:07:19;;;;;;;5.10;1.35;;;;;;;;;;5083157;28;20052;-58
2023/07/04 03:09:46;;;;;;;3.42;1.40;;;;;;;;;;5082983;28;20518;-59
2023/07/04 03:12:12;;;;;;;8.35;2.58;;;;;;;;;;5066534;28;20452;-59
2023/07/04 03:14:39;;;;;;;3.97;1.52;;;;;;;;;;5082720;28;20522;-59
2023/07/04 03:17:05;;;;;;;3.13;1.40;;;;;;;;;;5083248;28;20140;-58
2023/07/04 03:19:31;;;;;;;21.40;4.63;;;;;;;;;;5082430;28;20091;-57
2023/07/04 03:21:58;;;;;;;7.43;1.65;;;;;;;;;;5082499;28;20060;-58
2023/07/04 03:24:24;;;;;;;8.52;2.08;;;;;;;;;;5083647;28;20509;-57
2023/07/04 03:26:52;;;;;;;3.67;1.50;;;;;;;;;;5080232;28;20917;-57
2023/07/04 03:29:19;;;;;;;2.58;1.30;;;;;;;;;;5080340;28;20087;-59
2023/07/04 03:31:45;;;;;;;2.92;1.23;;;;;;;;;;5076375;28;20135;-58
2023/07/04 03:34:11;;;;;;;4.75;1.42;;;;;;;;;;5070934;28;20060;-58
2023/07/04 03:36:38;;;;;;;4.13;1.65;;;;;;;;;;5082433;28;20091;-58
2023/07/04 03:39:05;;;;;;;3.97;1.80;;;;;;;;;;5082976;28;20064;-58
2023/07/04 03:41:32;;;;;;;5.68;1.42;;;;;;;;;;5079079;28;20132;-59
2023/07/04 03:44:00;;;;;;;3.92;1.65;;;;;;;;;;5074914;28;20052;-58
2023/07/04 03:46:27;;;;;;;4.22;1.52;;;;;;;;;;5083649;28;20080;-57
2023/07/04 03:48:54;;;;;;;3.50;1.75;;;;;;;;;;5080820;28;20111;-59
2023/07/04 03:51:21;;;;;;;1.38;1.20;;;;;;;;;;5082990;28;20597;-59
2023/07/04 03:53:48;;;;;;;4.88;1.45;;;;;;;;;;5083040;28;20099;-57
2023/07/04 03:56:15;;;;;;;7.88;2.08;;;;;;;;;;5082690;28;20060;-59
2023/07/04 03:58:41;;;;;;;4.85;1.73;;;;;;;;;;5083260;28;20136;-59
2023/07/04 04:01:07;;;;;;;4.28;1.60;;;;;;;;;;5083647;28;20532;-59
2023/07/04 04:03:37;;;;;;;5.05;2.22;;;;;;;;;;5082111;28;20549;-59
2023/07/04 04:06:05;;;;;;;7.18;1.55;;;;;;;;;;5078525;28;20134;-59
2023/07/04 04:08:32;;;;;;;6.68;1.58;;;;;;;;;;5082716;28;20052;-57
2023/07/04 04:10:58;;;;;;;3.40;1.40;;;;;;;;;;5082709;28;20511;-58
2023/07/04 04:13:25;;;;;;;4.88;1.60;;;;;;;;;;5083465;28;20052;-58
2023/07/04 04:15:51;;;;;;;6.95;1.70;;;;;;;;;;5082120;28;20059;-58
2023/07/04 04:18:18;;;;;;;5.45;1.45;;;;;;;;;;5083452;28;20585;-58
2023/07/04 04:20:44;;;;;;;2.70;1.30;;;;;;;;;;5081869;28;20066;-59
2023/07/04 04:23:12;;;;;;;4.00;1.40;;;;;;;;;;5081408;28;20076;-59
2023/07/04 04:25:38;;;;;;;3.90;1.48;;;;;;;;;;5082377;28;20110;-58
2023/07/04 04:28:05;;;;;;;7.10;1.80;;;;;;;;;;5081748;28;20062;-58
2023/07/04 04:30:31;;;;;;;2.65;1.70;;;;;;;;;;5082618;28;20052;-58
2023/07/04 04:33:01;;;;;;;9.55;1.50;;;;;;;;;;5082891;28;20569;-59
2023/07/04 04:35:28;;;;;;;5.18;1.92;;;;;;;;;;5082033;28;20061;-59
2023/07/04 04:37:54;;;;;;;4.90;1.95;;;;;;;;;;5082804;28;20049;-59
2023/07/04 04:40:21;;;;;;;8.82;2.03;;;;;;;;;;5085054;28;20702;-58
2023/07/04 04:42:53;;;;;;;6.78;1.83;;;;;;;;;;5085438;28;20060;-59
2023/07/04 04:45:20;;;;;;;4.57;2.00;;;;;;;;;;5085372;28;20052;-58
2023/07/04 04:47:52;;;;;;;7.15;1.80;;;;;;;;;;5083784;28;20052;-59
2023/07/04 04:50:20;;;;;;;5.30;1.70;;;;;;;;;;5085709;28;20060;-59
2023/07/04 04:52:47;;;;;;;8.15;2.38;;;;;;;;;;5085249;28;20068;-59
2023/07/04 04:55:14;;;;;;;3.17;1.85;;;;;;;;;;5086096;28;20130;-58
2023/07/04 04:57:40;;;;;;;3.90;1.63;;;;;;;;;;5079220;28;20475;-58
2023/07/04 05:00:07;;;;;;;9.32;2.33;;;;;;;;;;5085980;28;20583;-59
2023/07/04 05:02:34;;;;;;;5.45;2.15;;;;;;;;;;5093030;28;20506;-59
2023/07/04 05:05:01;;;;;;;4.25;1.50;;;;;;;;;;5106611;27;20052;-58
2023/07/04 05:07:28;;;;;;;5.50;1.98;;;;;;;;;;5084689;27;20076;-58
2023/07/04 05:09:55;;;;;;;3.25;1.40;;;;;;;;;;5085095;28;20049;-57
2023/07/04 05:12:22;;;;;;;7.43;2.22;;;;;;;;;;5085784;28;20144;-59
2023/07/04 05:14:48;;;;;;;9.00;1.98;;;;;;;;;;5085544;28;20063;-59
2023/07/04 05:17:15;;;;;;;10.15;1.77;;;;;;;;;;5085968;28;20098;-59
2023/07/04 05:19:41;;;;;;;5.60;2.67;;;;;;;;;;5083786;28;20060;-58
2023/07/04 05:22:08;;;;;;;5.10;1.67;;;;;;;;;;5085598;28;20052;-58
2023/07/04 05:24:34;;;;;;;10.15;2.28;;;;;;;;;;5084472;28;20147;-58
2023/07/04 05:27:01;;;;;;;8.15;2.17;;;;;;;;;;5083733;28;20769;-59
2023/07/04 05:29:27;;;;;;;10.07;2.53;;;;;;;;;;5085756;28;20131;-59
2023/07/04 05:31:54;;;;;;;4.50;1.70;;;;;;;;;;5078087;28;20095;-59
2023/07/04 05:34:21;;;;;;;7.88;2.08;;;;;;;;;;5068645;28;20060;-57
2023/07/04 05:36:47;;;;;;;7.32;2.10;;;;;;;;;;5074218;28;20271;-59
2023/07/04 05:39:13;;;;;;;7.05;2.05;;;;;;;;;;5080343;28;20372;-59
2023/07/04 05:41:40;;;;;;;4.03;1.70;;;;;;;;;;5085403;28;20194;-59
2023/07/04 05:44:07;;;;;;;8.68;2.72;;;;;;;;;;5085510;28;20130;-59
2023/07/04 05:46:35;;;;;;;2.88;1.95;;;;;;;;;;5079622;28;20064;-58
2023/07/04 05:49:03;;;;;;;4.85;1.60;;;;;;;;;;5075515;28;20091;-59
2023/07/04 05:51:30;;;;;;;5.07;1.70;;;;;;;;;;5088004;28;20591;-59
2023/07/04 05:53:56;;;;;;;6.13;1.42;;;;;;;;;;5092993;27;20048;-58
2023/07/04 05:56:26;;;;;;;4.00;1.90;;;;;;;;;;5091158;27;20647;-59
2023/07/04 05:58:55;;;;;;;12.63;2.50;;;;;;;;;;5084568;28;20106;-59
2023/07/04 06:01:29;;;;;;;3.22;1.27;;;;;;;;;;5081955;28;20052;-59
2023/07/04 06:03:55;;;;;;;5.22;2.17;;;;;;;;;;5083987;28;20136;-59
2023/07/04 06:06:25;;;;;;;8.93;2.17;;;;;;;;;;5079588;28;20052;-59
2023/07/04 06:08:52;;;;;;;5.10;2.03;;;;;;;;;;5084526;28;20083;-59
2023/07/04 06:11:19;;;;;;;10.27;2.53;;;;;;;;;;5087619;28;20059;-59
2023/07/04 06:13:45;;;;;;;8.32;2.00;;;;;;;;;;5083914;28;20056;-60
2023/07/04 06:16:12;;;;;;;8.85;1.77;;;;;;;;;;5082419;28;20095;-59
2023/07/04 06:18:39;;;;;;;12.88;1.58;;;;;;;;;;5072861;28;20059;-58
2023/07/04 06:21:05;;;;;;;5.53;1.88;;;;;;;;;;5083788;28;20052;-58
2023/07/04 06:23:32;;;;;;;12.45;2.85;;;;;;;;;;5079500;28;20048;-59
2023/07/04 06:25:58;;;;;;;8.30;1.83;;;;;;;;;;5083846;28;20059;-58
2023/07/04 06:28:24;;;;;;;8.05;1.88;;;;;;;;;;5082882;28;20367;-59
2023/07/04 06:30:51;;;;;;;8.27;2.25;;;;;;;;;;5082715;28;20561;-59
2023/07/04 06:33:18;;;;;;;8.57;2.30;;;;;;;;;;5080207;28;20102;-59
2023/07/04 06:35:44;;;;;;;8.20;1.75;;;;;;;;;;5078926;28;20088;-59
2023/07/04 06:38:10;;;;;;;10.60;1.92;;;;;;;;;;5082637;28;20068;-59
2023/07/04 06:40:37;;;;;;;6.03;1.52;;;;;;;;;;5061903;28;20622;-59
2023/07/04 06:43:05;;;;;;;10.27;2.47;;;;;;;;;;5063888;28;20045;-59
2023/07/04 06:45:32;;;;;;;10.32;2.33;;;;;;;;;;5078598;28;20067;-59
2023/07/04 06:47:58;;;;;;;8.52;2.13;;;;;;;;;;5071800;28;20141;-58
2023/07/04 06:50:25;;;;;;;5.55;1.90;;;;;;;;;;5083841;28;20384;-59
2023/07/04 06:52:52;;;;;;;8.45;2.33;;;;;;;;;;5080067;28;20882;-57
2023/07/04 06:55:19;;;;;;;11.10;2.67;;;;;;;;;;5080893;28;20426;-59
2023/07/04 06:57:46;;;;;;;10.40;2.22;;;;;;;;;;5083239;28;20052;-61
2023/07/04 07:00:13;;;;;;;13.02;2.85;;;;;;;;;;5083486;28;20561;-58
2023/07/04 07:02:40;;;;;;;7.32;2.22;;;;;;;;;;5082288;28;20140;-58
2023/07/04 07:05:07;;;;;;;13.82;3.13;;;;;;;;;;5077643;28;20057;-58
2023/07/04 07:07:33;;;;;;;11.07;1.90;;;;;;;;;;5082009;28;20498;-58
2023/07/04 07:10:00;;;;;;;11.82;2.92;;;;;;;;;;5090011;28;20059;-59
2023/07/04 07:12:26;;;;;;;6.63;2.05;;;;;;;;;;5082727;28;20148;-58
2023/07/04 07:14:52;;;;;;;8.98;2.40;;;;;;;;;;5083509;28;20664;-58
2023/07/04 07:17:19;;;;;;;5.13;2.42;;;;;;;;;;5081788;28;20485;-58
2023/07/04 07:19:45;;;;;;;6.93;2.10;;;;;;;;;;5077193;28;20052;-59
2023/07/04 07:22:12;;;;;;;4.60;1.88;;;;;;;;;;5078063;28;20503;-59
2023/07/04 07:24:38;;;;;;;6.65;2.22;;;;;;;;;;5082279;28;20564;-58
2023/07/04 07:27:05;;;;;;;10.95;2.03;;;;;;;;;;5082225;28;20497;-58
2023/07/04 07:29:31;;;;;;;6.40;2.30;;;;;;;;;;5068512;28;20610;-58
2023/07/04 07:32:02;;;;;;;8.55;2.50;;;;;;;;;;5067064;28;20153;-59
2023/07/04 07:34:29;;;;;;;9.13;1.80;;;;;;;;;;5082538;28;20518;-59
2023/07/04 07:36:56;;;;;;;7.55;2.35;;;;;;;;;;5078704;28;20064;-59
2023/07/04 07:39:23;;;;;;;14.35;2.63;;;;;;;;;;5070003;28;20139;-58
2023/07/04 07:41:49;;;;;;;8.63;2.25;;;;;;;;;;5079123;28;20078;-59
2023/07/04 07:44:16;;;;;;;10.63;2.13;;;;;;;;;;5082026;28;20135;-58
2023/07/04 07:46:43;;;;;;;12.98;2.35;;;;;;;;;;5081095;28;20059;-58
2023/07/04 07:49:10;;;;;;;6.35;2.33;;;;;;;;;;5079428;28;20052;-59
2023/07/04 07:51:41;;;;;;;4.78;1.48;;;;;;;;;;5082687;28;20063;-59
2023/07/04 07:54:08;;;;;;;9.43;2.10;;;;;;;;;;5080035;28;20106;-59
2023/07/04 07:56:39;;;;;;;4.75;2.03;;;;;;;;;;5069888;28;20126;-58
2023/07/04 07:59:06;;;;;;;5.90;1.88;;;;;;;;;;5082246;28;20483;-59
2023/07/04 08:01:33;;;;;;;9.77;2.25;;;;;;;;;;5080024;28;20044;-58
2023/07/04 08:04:00;;;;;;;7.22;2.30;;;;;;;;;;5083189;28;20063;-58
2023/07/04 08:06:29;;;;;;;8.07;2.03;;;;;;;;;;5082663;28;20053;-58
2023/07/04 08:08:56;;;;;;;4.40;2.10;;;;;;;;;;5079751;28;20132;-59
2023/07/04 08:11:23;;;;;;;6.65;2.50;;;;;;;;;;5077462;28;20080;-59
2023/07/04 08:13:50;;;;;;;3.38;1.83;;;;;;;;;;5081802;28;20052;-59
2023/07/04 08:16:17;;;;;;;5.05;1.88;;;;;;;;;;5075458;28;20435;-58
2023/07/04 08:18:44;;;;;;;5.03;1.98;;;;;;;;;;5082615;28;20056;-59
2023/07/04 08:21:11;;;;;;;7.05;2.15;;;;;;;;;;5082441;28;20489;-59
2023/07/04 08:23:38;;;;;;;12.80;2.53;;;;;;;;;;5081760;28;20614;-59
2023/07/04 08:26:04;;;;;;;14.38;2.25;;;;;;;;;;5082314;28;20091;-59
2023/07/04 08:28:31;;;;;;;7.07;2.53;;;;;;;;;;5070106;28;20593;-60
2023/07/04 08:31:05;;;;;;;8.10;2.10;;;;;;;;;;5079268;28;20079;-60
2023/07/04 08:33:32;;;;;;;7.93;3.13;;;;;;;;;;5081430;28;20056;-60
2023/07/04 08:36:00;;;;;;;8.45;1.90;;;;;;;;;;5082754;28;20548;-59
2023/07/04 08:38:27;;;;;;;10.02;2.50;;;;;;;;;;5081523;28;20575;-60
2023/07/04 08:40:54;;;;;;;9.32;2.58;;;;;;;;;;5082621;28;20052;-59
2023/07/04 08:43:24;;;;;;;9.90;3.03;;;;;;;;;;5082922;28;20053;-60
2023/07/04 08:45:51;;;;;;;4.75;1.90;;;;;;;;;;5081833;28;20053;-59
2023/07/04 08:48:19;;;;;;;11.48;2.83;;;;;;;;;;5080714;28;20060;-58
2023/07/04 08:50:47;;;;;;;9.07;2.95;;;;;;;;;;5081676;28;20525;-59
2023/07/04 08:53:18;;;;;;;7.70;2.83;;;;;;;;;;5080162;28;20048;-59
2023/07/04 08:55:49;;;;;;;9.85;2.53;;;;;;;;;;5095262;28;20517;-60
2023/07/04 08:58:21;;;;;;;10.30;2.75;;;;;;;;;;5102249;27;20060;-60
2023/07/04 09:00:47;;;;;;;11.02;2.47;;;;;;;;;;5090722;27;20053;-59
2023/07/04 09:03:20;;;;;;;5.93;2.10;;;;;;;;;;5072008;28;20057;-59
2023/07/04 09:05:49;;;;;;;7.40;2.30;;;;;;;;;;5078564;28;20052;-59
2023/07/04 09:08:20;;;;;;;7.07;2.05;;;;;;;;;;5080854;28;20053;-60
2023/07/04 09:10:49;;;;;;;6.18;2.20;;;;;;;;;;5081826;28;20102;-60
2023/07/04 09:13:19;;;;;;;13.35;3.10;;;;;;;;;;5082167;28;20052;-60
2023/07/04 09:15:47;;;;;;;11.70;2.08;;;;;;;;;;5080078;28;20102;-58
2023/07/04 09:18:14;;;;;;;15.38;2.67;;;;;;;;;;5081873;28;20602;-59
2023/07/04 09:20:49;;;;;;;11.27;2.72;;;;;;;;;;5079000;28;20507;-60
2023/07/04 09:23:19;;;;;;;7.95;2.85;;;;;;;;;;5080457;28;20090;-59
2023/07/04 09:25:46;;;;;;;10.85;2.88;;;;;;;;;;5081933;28;20502;-59
2023/07/04 09:28:13;;;;;;;8.07;1.77;;;;;;;;;;5083853;28;20091;-58
2023/07/04 09:30:39;;;;;;;7.70;2.08;;;;;;;;;;5075102;28;20184;-58
2023/07/04 09:33:05;;;;;;;9.80;2.40;;;;;;;;;;5078595;28;20127;-58
2023/07/04 09:35:32;;;;;;;7.65;1.70;;;;;;;;;;5076762;28;20519;-60
2023/07/04 09:37:59;;;;;;;7.63;2.67;;;;;;;;;;5083485;28;20107;-59
2023/07/04 09:40:38;;;;;;;10.32;2.33;;;;;;;;;;5081170;28;20147;-59
2023/07/04 09:43:05;;;;;;;9.30;2.10;;;;;;;;;;5078089;28;20128;-59
2023/07/04 09:45:32;;;;;;;4.63;2.58;;;;;;;;;;5078438;28;20416;-59
2023/07/04 09:47:59;;;;;;;5.00;2.20;;;;;;;;;;5079099;28;20064;-59
2023/07/04 09:50:29;;;;;;;6.88;2.58;;;;;;;;;;5091825;28;20059;-59
2023/07/04 09:53:05;;;;;;;11.50;2.17;;;;;;;;;;5089453;27;20443;-59
2023/07/04 09:55:31;;;;;;;4.75;1.50;;;;;;;;;;5072434;28;20511;-59
2023/07/04 09:58:18;;;;;;;8.32;1.85;;;;;;;;;;5084770;28;20075;-58
2023/07/04 10:00:45;;;;;;;5.32;2.03;;;;;;;;;;5080505;28;20512;-59
2023/07/04 10:03:12;;;;;;;7.97;2.22;;;;;;;;;;5080189;28;20060;-58
2023/07/04 10:05:40;;;;;;;6.22;1.80;;;;;;;;;;5081566;28;20056;-58
2023/07/04 10:08:11;;;;;;;11.30;2.10;;;;;;;;;;5084834;28;20175;-59
2023/07/04 10:10:44;;;;;;;8.02;1.83;;;;;;;;;;5082514;28;20076;-59
2023/07/04 10:13:12;;;;;;;11.65;3.00;;;;;;;;;;5084383;28;20523;-58
2023/07/04 10:15:40;;;;;;;4.15;1.73;;;;;;;;;;5084702;28;20056;-59
2023/07/04 10:18:11;;;;;;;5.82;1.60;;;;;;;;;;5084404;28;20049;-59
2023/07/04 10:20:39;;;;;;;6.03;1.85;;;;;;;;;;5081677;28;20052;-59
2023/07/04 10:23:06;;;;;;;9.85;2.00;;;;;;;;;;5083545;28;20509;-58
2023/07/04 10:25:33;;;;;;;9.90;2.10;;;;;;;;;;5084392;28;20052;-57
2023/07/04 10:28:14;;;;;;;7.40;2.20;;;;;;;;;;5084156;28;20075;-59
2023/07/04 10:30:43;;;;;;;7.28;2.30;;;;;;;;;;5084368;28;20048;-58
2023/07/04 10:33:15;;;;;;;4.53;2.03;;;;;;;;;;5082042;28;20054;-59
2023/07/04 10:35:42;;;;;;;8.40;2.25;;;;;;;;;;5084558;28;20088;-58
2023/07/04 10:38:16;;;;;;;8.88;2.15;;;;;;;;;;5079921;28;20106;-58
2023/07/04 10:40:42;;;;;;;11.25;2.10;;;;;;;;;;5079722;28;20063;-58
2023/07/04 10:43:12;;;;;;;6.53;1.75;;;;;;;;;;5084517;28;20140;-59
2023/07/04 10:45:40;;;;;;;11.82;2.47;;;;;;;;;;5083926;28;20056;-59
2023/07/04 10:48:22;;;;;;;5.65;2.45;;;;;;;;;;5082669;28;20057;-59
2023/07/04 10:50:53;;;;;;;8.13;1.67;;;;;;;;;;5083877;28;20060;-59
2023/07/04 10:53:20;;;;;;;8.65;1.88;;;;;;;;;;5084900;28;20052;-59
2023/07/04 10:55:53;;;;;;;6.43;2.10;;;;;;;;;;5081131;28;20044;-59
2023/07/04 10:58:22;;;;;;;5.60;1.55;;;;;;;;;;5084037;28;20052;-58
2023/07/04 11:00:52;;;;;;;5.55;2.17;;;;;;;;;;5087212;28;20111;-59
2023/07/04 11:03:19;;;;;;;6.13;2.33;;;;;;;;;;5087135;28;20476;-59
2023/07/04 11:05:49;;;;;;;12.32;2.75;;;;;;;;;;5083642;28;20076;-58
2023/07/04 11:08:16;;;;;;;9.85;2.35;;;;;;;;;;5083690;28;20056;-58
2023/07/04 11:10:45;;;;;;;5.97;2.28;;;;;;;;;;5079595;28;20135;-58
2023/07/04 11:13:19;;;;;;;12.27;2.30;;;;;;;;;;5063743;28;20061;-58
2023/07/04 11:15:47;;;;;;;7.88;2.10;;;;;;;;;;5068257;28;20049;-59
2023/07/04 11:18:15;;;;;;;6.57;1.83;;;;;;;;;;5082702;28;20502;-59
2023/07/04 11:21:00;;;;;;;5.55;1.75;;;;;;;;;;5082723;28;20473;-59
2023/07/04 11:23:42;;;;;;;7.05;2.10;;;;;;;;;;5081553;28;20059;-58
2023/07/04 11:26:08;;;;;;;4.78;1.80;;;;;;;;;;5083275;28;20103;-57
2023/07/04 11:28:34;;;;;;;10.13;2.55;;;;;;;;;;5083127;28;20202;-58
2023/07/04 11:31:09;;;;;;;12.57;2.67;;;;;;;;;;5079393;28;21554;-57
2023/07/04 11:57:48;;;;;;;4.45;1.30;;;;;;;;;;5161820;22;20894;-61
2023/07/04 12:00:21;;;;;;;5.20;1.90;;;;;;;;;;5102114;27;20048;-59
2023/07/04 12:02:48;;;;;;;6.28;2.20;;;;;;;;;;5099264;27;20048;-62
2023/07/04 12:05:44;;;;;;;2.85;1.70;;;;;;;;;;5098443;28;20078;-64
2023/07/04 12:08:33;;;;;;;2.47;1.80;;;;;;;;;;5086973;27;20110;-61
2023/07/04 12:11:01;;;;;;;3.78;1.55;;;;;;;;;;5097949;27;20052;-64
2023/07/04 12:13:30;;;;;;;4.05;1.52;;;;;;;;;;5119902;27;20055;-68
2023/07/04 12:15:57;;;;;;;5.35;1.63;;;;;;;;;;5134573;27;20056;-62
2023/07/04 12:18:25;;;;;;;5.53;1.42;;;;;;;;;;5099193;28;20423;-65
2023/07/04 12:20:51;;;;;;;7.38;1.73;;;;;;;;;;5103383;27;20094;-61
2023/07/04 12:23:18;;;;;;;6.50;1.80;;;;;;;;;;5097469;28;20135;-62
2023/07/04 12:25:47;;;;;;;4.63;1.75;;;;;;;;;;5099553;27;20060;-62
2023/07/04 12:28:14;;;;;;;6.53;1.88;;;;;;;;;;5100651;28;20139;-62
2023/07/04 12:30:41;;;;;;;7.90;2.00;;;;;;;;;;5099874;27;20079;-62
2023/07/04 12:33:21;;;;;;;8.25;1.73;;;;;;;;;;5098535;27;20178;-62
2023/07/04 12:35:54;;;;;;;4.68;1.70;;;;;;;;;;5111926;27;20060;-62
2023/07/04 12:38:25;;;;;;;3.33;1.50;;;;;;;;;;5105366;27;20159;-62
2023/07/04 12:40:54;;;;;;;5.03;1.88;;;;;;;;;;5098979;27;20424;-64
2023/07/04 12:43:21;;;;;;;5.60;1.90;;;;;;;;;;5098600;27;20180;-64
2023/07/04 12:45:51;;;;;;;1.95;1.30;;;;;;;;;;5098951;27;20342;-64
2023/07/04 12:48:20;;;;;;;4.55;1.58;;;;;;;;;;5098764;27;20114;-63
2023/07/04 12:50:52;;;;;;;2.38;1.40;;;;;;;;;;5098205;27;20133;-62
2023/07/04 12:53:19;;;;;;;6.03;1.77;;;;;;;;;;5101026;27;20052;-62
2023/07/04 12:55:46;;;;;;;4.13;1.40;;;;;;;;;;5098696;27;20082;-63
2023/07/04 12:58:14;;;;;;;4.47;1.27;;;;;;;;;;5115584;27;20144;-64
2023/07/04 13:00:45;;;;;;;4.70;1.88;;;;;;;;;;5117306;27;20059;-65
2023/07/04 13:03:15;;;;;;;4.38;1.20;;;;;;;;;;5092035;27;20504;-62
2023/07/04 13:05:43;;;;;;;3.10;1.20;;;;;;;;;;5084640;28;20530;-64
2023/07/04 13:08:15;;;;;;;2.38;1.33;;;;;;;;;;5082439;28;20135;-64
2023/07/04 13:10:41;;;;;;;6.10;1.98;;;;;;;;;;5084807;28;20056;-63
2023/07/04 13:13:21;;;;;;;2.38;1.25;;;;;;;;;;5093375;28;20117;-64
2023/07/04 13:15:47;;;;;;;3.22;1.40;;;;;;;;;;5086106;27;20126;-63
2023/07/04 13:18:14;;;;;;;3.30;1.38;;;;;;;;;;5083859;28;20056;-62
2023/07/04 13:20:53;;;;;;;4.57;1.27;;;;;;;;;;5084361;28;20603;-64
2023/07/04 13:23:21;;;;;;;3.65;1.30;;;;;;;;;;5099807;28;20056;-63
2023/07/04 13:25:52;;;;;;;2.95;0.93;;;;;;;;;;5104627;27;20485;-65
2023/07/04 13:28:21;;;;;;;2.45;1.35;;;;;;;;;;5096144;28;20500;-65
2023/07/04 13:30:50;;;;;;;3.08;1.58;;;;;;;;;;5073577;27;20090;-65
2023/07/04 13:33:32;;;;;;;2.88;1.35;;;;;;;;;;5083963;28;20145;-65
2023/07/04 13:36:25;;;;;;;4.45;1.58;;;;;;;;;;5095489;27;20083;-67
2023/07/04 13:38:52;;;;;;;4.88;1.30;;;;;;;;;;5099199;27;20141;-65
2023/07/04 13:41:40;;;;;;;5.10;1.52;;;;;;;;;;5099839;27;20150;-64
2023/07/04 13:44:07;;;;;;;5.65;1.20;;;;;;;;;;5102930;27;20058;-64
2023/07/04 13:46:37;;;;;;;8.07;1.95;;;;;;;;;;5091172;27;20141;-62
2023/07/04 13:49:04;;;;;;;2.72;1.55;;;;;;;;;;5087825;28;20064;-64
2023/07/04 13:51:31;;;;;;;3.08;1.02;;;;;;;;;;5087845;27;20088;-63
2023/07/04 13:53:58;;;;;;;6.78;1.90;;;;;;;;;;5099583;27;20190;-62
2023/07/04 13:56:24;;;;;;;5.20;1.52;;;;;;;;;;5090730;27;20044;-62
2023/07/04 13:58:53;;;;;;;3.67;1.55;;;;;;;;;;5119157;27;20553;-62
2023/07/04 14:01:20;;;;;;;3.60;1.20;;;;;;;;;;5095357;27;20056;-62
2023/07/04 14:03:49;;;;;;;6.57;1.88;;;;;;;;;;5090035;27;20087;-61
2023/07/04 14:06:18;;;;;;;4.65;1.30;;;;;;;;;;5090858;27;20147;-63
2023/07/04 14:08:45;;;;;;;5.82;2.05;;;;;;;;;;5089020;27;20059;-63
2023/07/04 14:11:13;;;;;;;5.78;1.60;;;;;;;;;;5103636;27;20060;-60
2023/07/04 14:13:39;;;;;;;3.83;1.77;;;;;;;;;;5096841;27;20049;-61
2023/07/04 14:16:07;;;;;;;6.85;1.65;;;;;;;;;;5099127;27;20542;-62
2023/07/04 14:18:37;;;;;;;5.82;1.77;;;;;;;;;;5092282;27;20142;-61
2023/07/04 14:21:07;;;;;;;2.33;1.40;;;;;;;;;;5115226;27;20540;-62
2023/07/04 14:23:34;;;;;;;4.80;1.77;;;;;;;;;;5103911;27;20110;-62
2023/07/04 14:26:00;;;;;;;3.97;1.70;;;;;;;;;;5094992;27;20495;-62
2023/07/04 14:28:27;;;;;;;2.90;1.60;;;;;;;;;;5084576;27;20059;-62
2023/07/04 14:30:56;;;;;;;4.55;1.60;;;;;;;;;;5084989;27;20048;-61
2023/07/04 14:33:23;;;;;;;9.55;1.58;;;;;;;;;;5094840;27;20152;-63
2023/07/04 14:35:50;;;;;;;8.90;1.60;;;;;;;;;;5100227;27;20518;-62
2023/07/04 14:38:17;;;;;;;2.90;1.70;;;;;;;;;;5092796;27;20060;-62
2023/07/04 14:40:44;;;;;;;2.78;1.42;;;;;;;;;;5092643;27;20534;-63
2023/07/04 14:43:13;;;;;;;2.92;1.40;;;;;;;;;;5100916;27;20080;-63
2023/07/04 14:45:40;;;;;;;4.20;1.60;;;;;;;;;;5092439;27;20057;-63
2023/07/04 14:48:06;;;;;;;3.38;1.25;;;;;;;;;;5084252;27;21188;-63
2023/07/04 14:50:33;;;;;;;2.22;1.30;;;;;;;;;;5102152;27;20045;-63
2023/07/04 14:52:59;;;;;;;3.42;1.33;;;;;;;;;;5089033;27;20056;-64
2023/07/04 14:55:25;;;;;;;3.33;1.50;;;;;;;;;;5110819;27;20052;-63
2023/07/04 14:57:53;;;;;;;3.17;1.67;;;;;;;;;;5120184;27;20106;-62
2023/07/04 15:00:21;;;;;;;2.60;1.65;;;;;;;;;;5113661;27;20051;-63
2023/07/04 15:02:48;;;;;;;4.90;1.52;;;;;;;;;;5089433;27;20056;-61
2023/07/04 15:05:15;;;;;;;8.20;3.75;;;;;;;;;;5102610;27;20059;-63
2023/07/04 15:07:44;;;;;;;2.00;1.45;;;;;;;;;;5101511;27;20151;-63
2023/07/04 15:10:11;;;;;;;2.53;1.50;;;;;;;;;;5094943;27;20048;-62